Catàleg de serveis del Meteocat
Campanya meteocatpedra

Dades de l'estació automàtica Alfarràs

?
?
Resum diari 20:30 TU
Dades diàries de l'estació meteorològica
Temperatura mitjana 28.2 °C
Temperatura màxima 38.8 °C 14:53 TU
Temperatura mínima 16.8 °C 3:26 TU
Humitat relativa mitjana 48%
Precipitació acumulada 0.0 mm
Ratxa màxima del vent (2 m) 13.0 km/h - 165º 16:55 TU

El tram horari està expressat en Temps Universal (TU). Cal sumar una hora en horari d'hivern i dues en horari d'estiu per passar a l'hora oficial.

Alfarràs

Metadades estació meteorol´gica
Municipi Alfarràs
Comarca Segrià
Altitud 268 m
Data alta 17.09.1997
Estat actual Operativa
Dades de període
Període
TU
TM
°C
TX
°C
TN
°C
HRM
%
PPT
mm
VVM (2 m)
km/h
DVM (2 m)
graus
VVX (2 m)
km/h
00:00 - 00:30 18.5 19.1 18.2 82 0.0 0.7 10 4.7
00:30 - 01:00 19.4 20.2 17.9 75 0.0 1.1 305 5.8
01:00 - 01:30 18.5 19.3 17.6 78 0.0 1.4 346 5.0
01:30 - 02:00 19.2 19.7 18.6 72 0.0 1.8 328 5.4
02:00 - 02:30 18.8 19.4 18.3 75 0.0 1.4 345 4.0
02:30 - 03:00 18.7 19.5 17.9 75 0.0 1.4 356 4.7
03:00 - 03:30 17.5 19.3 16.8 84 0.0 0.4 16 2.5
03:30 - 04:00 18.3 20.1 17.0 77 0.0 1.8 348 7.2
04:00 - 04:30 20.5 20.8 20.3 65 0.0 3.6 342 9.0
04:30 - 05:00 20.1 20.4 20.0 66 0.0 2.5 2 6.5
05:00 - 05:30 19.3 20.0 18.2 72 0.0 1.8 351 5.4
05:30 - 06:00 20.5 21.1 20.0 66 0.0 2.5 320 6.1
06:00 - 06:30 21.9 22.7 21.1 64 0.0 2.9 321 7.2
06:30 - 07:00 23.5 24.4 22.7 61 0.0 3.6 341 7.9
07:00 - 07:30 25.3 26.4 24.5 57 0.0 3.2 347 8.6
07:30 - 08:00 28.2 29.5 26.5 50 0.0 0.4 355 4.0
08:00 - 08:30 29.9 30.7 29.1 47 0.0 0.7 156 4.0
08:30 - 09:00 30.8 31.0 30.6 44 0.0 2.2 176 6.5
09:00 - 09:30 31.3 31.7 30.6 42 0.0 2.9 175 10.1
09:30 - 10:00 32.1 32.4 31.6 39 0.0 2.9 167 9.7
10:00 - 10:30 32.6 33.3 32.0 36 0.0 2.2 143 7.9
10:30 - 11:00 33.6 34.4 32.9 31 0.0 0.4 134 5.0
11:00 - 11:30 34.4 35.3 34.0 25 0.0 0.4 145 6.5
11:30 - 12:00 35.5 36.0 34.6 26 0.0 0.4 153 6.5
12:00 - 12:30 35.9 37.4 35.2 24 0.0 0.0 142 3.6
12:30 - 13:00 36.8 37.5 36.1 21 0.0 0.0 166 4.0
13:00 - 13:30 37.1 37.5 36.7 22 0.0 0.4 144 5.8
13:30 - 14:00 36.9 37.3 36.7 23 0.0 0.4 139 5.4
14:00 - 14:30 38.0 38.6 37.2 21 0.0 0.0 174 4.7
14:30 - 15:00 37.8 38.8 37.2 22 0.0 0.0 157 4.7
15:00 - 15:30 38.2 38.6 37.5 24 0.0 0.0 144 6.5
15:30 - 16:00 37.3 37.7 36.9 26 0.0 1.4 155 9.7
16:00 - 16:30 37.3 37.6 36.7 28 0.0 1.4 168 12.2
16:30 - 17:00 35.7 36.6 35.0 26 0.0 5.0 171 13.0
17:00 - 17:30 34.4 34.9 33.0 27 0.0 3.2 160 10.8
17:30 - 18:00 32.1 32.9 31.7 32 0.0 2.5 128 7.6
18:00 - 18:30 31.4 31.9 30.3 37 0.0 1.8 121 6.5
18:30 - 19:00 28.9 30.0 27.9 44 0.0 1.4 67 4.7
19:00 - 19:30 27.5 28.8 26.1 46 0.0 1.1 170 4.7
19:30 - 20:00 24.7 26.2 23.3 58 0.0 0.4 247 4.7
20:00 - 20:30 22.7 23.2 22.4 66 0.0 0.0 56 2.9
20:30 - 21:00 21.9 22.4 21.3 70 0.0 1.1 349 3.2

Les dades en taronja només han passat un control de qualitat automàtic. Resta pendent la seva validació definitiva.